Time;durP1;ratioP1;P1;durP2;ratioP2;P2;SDS_P1;SDS_P2;PMS_P1;PMS_P2;Temp;Humidity;BMP_temperature;BMP_pressure;BME280_temperature;BME280_humidity;BME280_pressure;Samples;Min_cycle;Max_cycle;Signal;HPM_P1;HPM_P2
2022/04/03 00:00:15;;;;;;;6.57;1.98;;;3.50;97.50;;;;;;5053439;28;20036;-81
2022/04/03 00:02:40;;;;;;;4.32;1.75;;;3.40;97.70;;;;;;5053481;28;20025;-82
2022/04/03 00:05:07;;;;;;;5.18;1.90;;;3.50;97.60;;;;;;5052437;28;20035;-81
2022/04/03 00:07:33;;;;;;;5.28;1.88;;;3.40;97.80;;;;;;5052676;28;20032;-81
2022/04/03 00:10:00;;;;;;;3.85;1.92;;;3.50;97.50;;;;;;5052551;28;20389;-80
2022/04/03 00:12:25;;;;;;;5.40;1.80;;;3.40;97.90;;;;;;5052487;28;20033;-80
2022/04/03 00:14:51;;;;;;;5.63;2.38;;;3.30;98.20;;;;;;5052902;28;20021;-81
2022/04/03 00:17:17;;;;;;;7.18;1.95;;;3.40;98.20;;;;;;5052411;28;20389;-81
2022/04/03 00:19:43;;;;;;;7.10;2.10;;;3.30;98.70;;;;;;5052361;28;20082;-80
2022/04/03 00:22:11;;;;;;;4.80;1.70;;;3.30;98.90;;;;;;5052473;28;20033;-81
2022/04/03 00:24:37;;;;;;;5.47;2.05;;;3.40;98.50;;;;;;5051233;28;20032;-79
2022/04/03 00:27:03;;;;;;;3.95;1.77;;;3.40;98.60;;;;;;5052263;28;20481;-80
2022/04/03 00:29:29;;;;;;;4.40;1.40;;;3.40;98.70;;;;;;5052618;28;20028;-81
2022/04/03 00:31:55;;;;;;;7.40;1.73;;;3.30;98.70;;;;;;5052382;28;20036;-81
2022/04/03 00:34:22;;;;;;;5.30;1.45;;;3.30;98.80;;;;;;5052476;28;20025;-80
2022/04/03 00:36:47;;;;;;;5.03;2.00;;;3.20;99.00;;;;;;5050887;28;20382;-81
2022/04/03 00:39:13;;;;;;;6.50;2.00;;;3.30;99.10;;;;;;5052307;28;20071;-80
2022/04/03 00:41:40;;;;;;;5.47;2.60;;;3.30;98.90;;;;;;5052484;28;20040;-81
2022/04/03 00:44:06;;;;;;;4.50;1.90;;;3.30;99.00;;;;;;5052257;28;20032;-80
2022/04/03 00:46:33;;;;;;;6.03;1.95;;;3.30;99.20;;;;;;5052048;28;20025;-81
2022/04/03 00:49:01;;;;;;;8.88;2.45;;;3.40;98.80;;;;;;5052159;28;20029;-81
2022/04/03 00:51:27;;;;;;;3.13;1.60;;;3.40;98.70;;;;;;5053526;28;20458;-80
2022/04/03 00:53:53;;;;;;;3.38;1.67;;;3.30;98.90;;;;;;5055903;28;20021;-80
2022/04/03 00:56:20;;;;;;;6.72;3.20;;;3.30;99.30;;;;;;5054812;28;20450;-81
2022/04/03 00:58:48;;;;;;;8.32;3.65;;;3.40;99.20;;;;;;5055987;28;20033;-81
2022/04/03 01:01:13;;;;;;;8.50;1.73;;;3.30;99.00;;;;;;5055476;28;20082;-80
2022/04/03 01:03:39;;;;;;;3.33;1.85;;;3.30;99.20;;;;;;5055881;28;20120;-81
2022/04/03 01:06:05;;;;;;;7.30;2.03;;;3.30;99.30;;;;;;5056120;28;20048;-77
2022/04/03 01:08:32;;;;;;;6.90;2.05;;;3.30;99.30;;;;;;5055650;28;20116;-81
2022/04/03 01:10:58;;;;;;;6.43;2.30;;;3.20;99.50;;;;;;5055863;28;20032;-81
2022/04/03 01:13:25;;;;;;;7.68;2.60;;;3.10;99.90;;;;;;5055627;28;20025;-81
2022/04/03 01:16:00;;;;;;;6.78;2.95;;;3.00;99.90;;;;;;5055613;28;20017;-81
2022/04/03 01:18:27;;;;;;;7.22;3.83;;;2.80;99.90;;;;;;5055545;28;20512;-80
2022/04/03 01:20:54;;;;;;;4.88;2.30;;;2.80;99.90;;;;;;5054433;28;20123;-81
2022/04/03 01:23:21;;;;;;;5.13;2.33;;;2.90;99.90;;;;;;5055530;28;20447;-80
2022/04/03 01:25:46;;;;;;;6.95;2.40;;;3.00;99.90;;;;;;5055297;28;20033;-81
2022/04/03 01:28:12;;;;;;;3.65;2.03;;;3.00;99.90;;;;;;5055332;28;20067;-81
2022/04/03 01:30:38;;;;;;;10.20;2.42;;;3.00;99.90;;;;;;5054098;28;20496;-81
2022/04/03 01:33:03;;;;;;;4.97;1.92;;;3.10;99.90;;;;;;5055355;28;20393;-81
2022/04/03 01:35:29;;;;;;;7.80;2.50;;;2.80;99.90;;;;;;5054082;28;20032;-81
2022/04/03 01:37:55;;;;;;;3.45;2.25;;;2.90;99.90;;;;;;5055231;28;20439;-78
2022/04/03 01:40:21;;;;;;;3.85;2.30;;;2.40;99.90;;;;;;5053534;28;20029;-80
2022/04/03 01:42:46;;;;;;;5.40;2.35;;;2.30;99.90;;;;;;5055307;28;20078;-81
2022/04/03 01:45:12;;;;;;;7.50;2.55;;;2.40;99.90;;;;;;5054789;28;20394;-80
2022/04/03 01:47:38;;;;;;;3.97;2.30;;;2.30;99.90;;;;;;5055051;28;20025;-81
2022/04/03 01:50:05;;;;;;;7.53;2.67;;;2.40;99.90;;;;;;5055072;28;20025;-81
2022/04/03 01:52:31;;;;;;;6.82;3.28;;;2.30;99.90;;;;;;5053876;28;20033;-81
2022/04/03 01:54:57;;;;;;;5.07;2.53;;;2.40;99.90;;;;;;5054791;28;20380;-81
2022/04/03 01:57:22;;;;;;;3.63;2.22;;;2.50;99.90;;;;;;5054857;28;20426;-81
2022/04/03 01:59:48;;;;;;;7.35;2.28;;;1.90;99.90;;;;;;5054679;28;20444;-80
2022/04/03 02:02:14;;;;;;;4.80;2.70;;;2.00;99.90;;;;;;5054508;28;20041;-79
2022/04/03 02:04:39;;;;;;;5.45;2.70;;;1.90;99.90;;;;;;5054572;28;20501;-79
2022/04/03 02:07:05;;;;;;;4.80;1.73;;;1.80;99.90;;;;;;5054812;28;20041;-79
2022/04/03 02:09:31;;;;;;;3.83;2.17;;;1.90;99.90;;;;;;5054541;28;20075;-81
2022/04/03 02:11:58;;;;;;;5.03;2.08;;;1.90;99.90;;;;;;5054810;28;20477;-80
2022/04/03 02:14:27;;;;;;;5.43;1.85;;;2.10;99.90;;;;;;5054381;28;20488;-79
2022/04/03 02:16:56;;;;;;;7.00;2.30;;;2.20;99.90;;;;;;5054648;28;20076;-78
2022/04/03 02:19:22;;;;;;;6.78;2.00;;;2.10;99.90;;;;;;5054111;28;20523;-81
2022/04/03 02:21:48;;;;;;;7.68;2.42;;;1.80;99.90;;;;;;5054693;28;20520;-79
2022/04/03 02:24:14;;;;;;;6.38;2.58;;;1.60;99.90;;;;;;5054619;28;20036;-81
2022/04/03 02:26:41;;;;;;;10.75;2.80;;;1.70;99.90;;;;;;5053073;28;20044;-80
2022/04/03 02:29:07;;;;;;;4.28;2.17;;;1.80;99.90;;;;;;5053858;28;20025;-79
2022/04/03 02:31:33;;;;;;;8.77;2.65;;;1.80;99.90;;;;;;5054225;28;20037;-79
2022/04/03 02:33:58;;;;;;;4.97;2.60;;;2.00;99.90;;;;;;5054476;28;20040;-80
2022/04/03 02:36:25;;;;;;;6.53;2.60;;;2.00;99.90;;;;;;5054517;28;20069;-80
2022/04/03 02:38:51;;;;;;;7.32;2.60;;;2.00;99.90;;;;;;5054211;28;20079;-80
2022/04/03 02:41:17;;;;;;;10.63;3.03;;;2.10;99.90;;;;;;5052337;28;20048;-80
2022/04/03 02:43:43;;;;;;;5.18;2.65;;;2.30;99.90;;;;;;5053885;28;20028;-80
2022/04/03 02:46:08;;;;;;;6.63;2.65;;;2.50;99.90;;;;;;5054029;28;20473;-80
2022/04/03 02:48:34;;;;;;;9.00;3.13;;;2.60;99.90;;;;;;5053630;28;20477;-81
2022/04/03 02:51:01;;;;;;;7.32;3.15;;;2.70;99.90;;;;;;5053689;28;20032;-80
2022/04/03 02:53:27;;;;;;;7.55;3.67;;;2.70;99.90;;;;;;5053761;28;20032;-81
2022/04/03 02:55:53;;;;;;;7.32;2.50;;;2.70;99.90;;;;;;5053866;28;20021;-80
2022/04/03 02:58:19;;;;;;;7.50;2.45;;;2.60;99.90;;;;;;5053353;28;20025;-80
2022/04/03 03:00:46;;;;;;;5.63;2.33;;;2.50;99.90;;;;;;5034568;28;20501;-81
2022/04/03 03:03:12;;;;;;;10.20;3.00;;;2.50;99.90;;;;;;5045713;28;20482;-80
2022/04/03 03:05:38;;;;;;;10.80;3.42;;;2.50;99.90;;;;;;5052267;28;20074;-80
2022/04/03 03:08:04;;;;;;;10.70;4.28;;;2.60;99.90;;;;;;5053634;28;20112;-80
2022/04/03 03:10:31;;;;;;;11.52;3.95;;;2.50;99.90;;;;;;5053462;28;20075;-80
2022/04/03 03:12:56;;;;;;;10.18;3.42;;;2.50;99.90;;;;;;5053218;28;20500;-80
2022/04/03 03:15:23;;;;;;;6.78;3.38;;;2.40;99.90;;;;;;5052668;28;20028;-80
2022/04/03 03:17:49;;;;;;;5.43;2.85;;;2.40;99.90;;;;;;5053331;28;20040;-81
2022/04/03 03:20:15;;;;;;;5.40;3.03;;;2.40;99.90;;;;;;5052058;28;20037;-80
2022/04/03 03:22:41;;;;;;;14.13;3.42;;;1.90;99.90;;;;;;5052220;28;20031;-81
2022/04/03 03:25:08;;;;;;;6.20;3.10;;;2.00;99.90;;;;;;5053203;28;20056;-80
2022/04/03 03:27:35;;;;;;;9.52;3.08;;;1.90;99.90;;;;;;5052783;28;20112;-79
2022/04/03 03:30:01;;;;;;;9.18;3.50;;;1.40;99.90;;;;;;5053269;28;20043;-77
2022/04/03 03:32:27;;;;;;;7.22;3.10;;;1.20;99.90;;;;;;5052958;28;20025;-78
2022/04/03 03:34:54;;;;;;;4.93;2.95;;;1.10;99.90;;;;;;5053201;28;20028;-77
2022/04/03 03:37:20;;;;;;;6.93;3.35;;;1.10;99.90;;;;;;5052739;28;20033;-79
2022/04/03 03:39:47;;;;;;;6.97;2.88;;;1.10;99.90;;;;;;5053076;28;20136;-78
2022/04/03 03:42:13;;;;;;;7.68;3.38;;;1.10;99.90;;;;;;5052686;28;20095;-79
2022/04/03 03:44:39;;;;;;;11.32;2.63;;;1.20;99.90;;;;;;5052993;28;20386;-79
2022/04/03 03:47:05;;;;;;;6.30;2.65;;;1.30;99.90;;;;;;5052700;28;20029;-80
2022/04/03 03:49:32;;;;;;;6.25;3.33;;;1.40;99.90;;;;;;5052860;28;20028;-80
2022/04/03 03:51:58;;;;;;;7.57;2.63;;;1.50;99.90;;;;;;5052772;28;20025;-79
2022/04/03 03:54:25;;;;;;;12.63;3.28;;;1.70;99.90;;;;;;5052936;28;20097;-77
2022/04/03 03:56:51;;;;;;;9.63;3.72;;;1.70;99.90;;;;;;5052380;28;20545;-79
2022/04/03 03:59:17;;;;;;;9.57;4.13;;;1.30;99.90;;;;;;5052662;28;20486;-77
2022/04/03 04:01:42;;;;;;;5.03;3.33;;;1.30;99.90;;;;;;5052506;28;20041;-79
2022/04/03 04:04:08;;;;;;;8.25;3.10;;;1.10;99.90;;;;;;5052805;28;20048;-78
2022/04/03 04:06:34;;;;;;;9.98;3.58;;;1.00;99.90;;;;;;5052775;28;20488;-79
2022/04/03 04:09:00;;;;;;;9.10;3.35;;;1.00;99.90;;;;;;5052880;28;20028;-79
2022/04/03 04:11:25;;;;;;;5.78;3.85;;;1.20;99.90;;;;;;5052376;28;20035;-79
2022/04/03 04:13:51;;;;;;;8.88;3.83;;;1.30;99.90;;;;;;5052621;28;20021;-80
2022/04/03 04:16:17;;;;;;;8.48;3.75;;;1.30;99.90;;;;;;5052624;28;20453;-79
2022/04/03 04:18:43;;;;;;;11.02;4.18;;;1.20;99.90;;;;;;5052685;28;20123;-80
2022/04/03 04:21:11;;;;;;;15.38;4.63;;;1.40;99.90;;;;;;5052646;28;20037;-79
2022/04/03 04:23:37;;;;;;;11.32;4.60;;;1.50;99.90;;;;;;5052489;28;20028;-79
2022/04/03 04:26:03;;;;;;;14.50;5.07;;;1.60;99.90;;;;;;5054791;28;20394;-79
2022/04/03 04:28:29;;;;;;;6.82;4.43;;;1.60;99.90;;;;;;5056390;28;20025;-79
2022/04/03 04:30:57;;;;;;;10.50;4.95;;;1.60;99.90;;;;;;5056623;28;20036;-79
2022/04/03 04:33:24;;;;;;;6.72;4.13;;;1.40;99.90;;;;;;5056403;28;20025;-78
2022/04/03 04:35:50;;;;;;;14.20;4.45;;;1.40;99.90;;;;;;5056418;28;20465;-79
2022/04/03 04:38:17;;;;;;;9.25;4.38;;;1.40;99.90;;;;;;5056397;28;20036;-80
2022/04/03 04:40:44;;;;;;;10.50;4.53;;;1.40;99.90;;;;;;5055826;28;20037;-79
2022/04/03 04:43:10;;;;;;;9.45;3.85;;;1.30;99.90;;;;;;5056333;28;20021;-80
2022/04/03 04:45:36;;;;;;;7.75;3.78;;;1.40;99.90;;;;;;5055195;28;20584;-79
2022/04/03 04:48:02;;;;;;;7.82;4.32;;;1.50;99.90;;;;;;5055887;28;20041;-78
2022/04/03 04:50:28;;;;;;;10.30;4.10;;;1.60;99.90;;;;;;5056226;28;20493;-79
2022/04/03 04:52:56;;;;;;;14.18;4.82;;;1.20;99.90;;;;;;5056117;28;20033;-79
2022/04/03 04:55:22;;;;;;;8.23;5.43;;;1.00;99.90;;;;;;5055890;28;20108;-79
2022/04/03 04:57:56;;;;;;;10.32;5.68;;;1.00;99.90;;;;;;5055965;28;20025;-79
2022/04/03 05:00:24;;;;;;;13.25;5.30;;;0.80;99.90;;;;;;5056044;28;20045;-79
2022/04/03 05:02:50;;;;;;;11.40;5.15;;;0.90;99.90;;;;;;5055872;28;20485;-77
2022/04/03 05:05:18;;;;;;;11.02;4.93;;;0.70;99.90;;;;;;5056000;28;20037;-78
2022/04/03 05:07:44;;;;;;;11.75;5.78;;;0.80;99.90;;;;;;5055266;28;20112;-74
2022/04/03 05:10:15;;;;;;;12.48;5.90;;;0.60;99.90;;;;;;5056056;28;20552;-79
2022/04/03 05:12:42;;;;;;;12.38;6.18;;;0.30;99.90;;;;;;5055761;28;20408;-79
2022/04/03 05:15:11;;;;;;;9.60;5.80;;;0.10;99.90;;;;;;5054610;28;20111;-80
2022/04/03 05:17:39;;;;;;;12.50;5.70;;;0.10;99.90;;;;;;5055328;28;20040;-79
2022/04/03 05:20:06;;;;;;;12.75;7.72;;;0.30;99.90;;;;;;5055575;28;20078;-79
2022/04/03 05:22:31;;;;;;;11.57;6.60;;;0.60;99.90;;;;;;5055256;28;20025;-79
2022/04/03 05:24:57;;;;;;;12.65;6.72;;;0.80;99.90;;;;;;5055364;28;20052;-78
2022/04/03 05:27:24;;;;;;;15.68;7.82;;;0.90;99.90;;;;;;5055366;28;20035;-79
2022/04/03 05:29:50;;;;;;;11.82;6.97;;;0.90;99.90;;;;;;5053908;28;20219;-79
2022/04/03 05:32:27;;;;;;;17.58;6.93;;;1.00;99.90;;;;;;5055673;28;20537;-79
2022/04/03 05:34:53;;;;;;;12.60;6.63;;;0.60;99.90;;;;;;5055359;28;20029;-80
2022/04/03 05:37:19;;;;;;;11.63;6.97;;;0.70;99.90;;;;;;5053035;28;20033;-79
2022/04/03 05:39:45;;;;;;;16.02;7.05;;;0.80;99.90;;;;;;5054995;28;20050;-79
2022/04/03 05:42:11;;;;;;;12.98;7.38;;;0.60;99.90;;;;;;5055150;28;20108;-79
2022/04/03 05:44:37;;;;;;;15.27;7.22;;;0.60;99.90;;;;;;5055050;28;20033;-79
2022/04/03 05:47:03;;;;;;;15.43;6.85;;;0.70;99.90;;;;;;5055086;28;20117;-79
2022/04/03 05:49:29;;;;;;;10.30;6.53;;;1.00;99.90;;;;;;5053801;28;20025;-76
2022/04/03 05:51:54;;;;;;;15.85;6.82;;;1.10;99.90;;;;;;5054890;28;20043;-79
2022/04/03 05:54:20;;;;;;;16.17;7.90;;;1.10;99.90;;;;;;5054809;28;20056;-78
2022/04/03 05:56:46;;;;;;;18.92;8.52;;;1.30;99.90;;;;;;5055116;28;20062;-79
2022/04/03 05:59:12;;;;;;;18.15;8.95;;;1.30;99.90;;;;;;5054722;28;20358;-79
2022/04/03 06:01:38;;;;;;;16.92;9.25;;;1.40;99.90;;;;;;5054713;28;20037;-79
2022/04/03 06:04:04;;;;;;;19.40;8.57;;;1.30;99.90;;;;;;5054695;28;20029;-80
2022/04/03 06:06:30;;;;;;;22.33;7.53;;;1.30;99.90;;;;;;5054457;28;20115;-74
2022/04/03 06:08:55;;;;;;;18.45;9.13;;;1.00;99.90;;;;;;5054644;28;20417;-79
2022/04/03 06:11:21;;;;;;;19.95;9.82;;;1.00;99.90;;;;;;5054685;28;20545;-79
2022/04/03 06:13:47;;;;;;;17.83;9.60;;;1.30;99.90;;;;;;5054525;28;20044;-79
2022/04/03 06:16:13;;;;;;;19.70;7.97;;;1.20;99.90;;;;;;5054663;28;20021;-78
2022/04/03 06:18:39;;;;;;;19.20;9.27;;;1.00;99.90;;;;;;5054588;28;20401;-79
2022/04/03 06:21:05;;;;;;;17.13;7.22;;;0.90;99.90;;;;;;5052678;28;20025;-79
2022/04/03 06:23:31;;;;;;;15.25;7.82;;;1.00;99.90;;;;;;5054475;28;20022;-79
2022/04/03 06:25:57;;;;;;;17.20;7.75;;;1.20;99.90;;;;;;5054249;28;20453;-78
2022/04/03 06:28:25;;;;;;;19.25;6.93;;;1.30;99.90;;;;;;5053339;28;20025;-79
2022/04/03 06:30:52;;;;;;;24.85;11.23;;;1.80;99.90;;;;;;5054098;28;20033;-76
2022/04/03 06:33:18;;;;;;;30.52;14.02;;;2.10;99.90;;;;;;5054243;28;20100;-80
2022/04/03 06:35:44;;;;;;;23.02;10.18;;;2.20;99.90;;;;;;5053979;28;20053;-78
2022/04/03 06:38:11;;;;;;;21.42;12.18;;;2.00;99.90;;;;;;5054071;28;20022;-76
2022/04/03 06:40:40;;;;;;;15.13;8.70;;;2.20;99.90;;;;;;5053911;28;20040;-77
2022/04/03 06:43:07;;;;;;;16.17;9.57;;;2.30;99.90;;;;;;5054064;28;20036;-79
2022/04/03 06:45:32;;;;;;;15.10;9.15;;;2.60;99.90;;;;;;5053896;28;20033;-75
2022/04/03 06:48:00;;;;;;;16.95;8.73;;;2.60;99.90;;;;;;5052345;28;20017;-77
2022/04/03 06:50:25;;;;;;;18.75;8.80;;;2.90;99.90;;;;;;5052876;28;20111;-77
2022/04/03 06:52:51;;;;;;;12.25;7.03;;;3.20;99.90;;;;;;5053974;28;20528;-79
2022/04/03 06:55:17;;;;;;;12.35;6.22;;;3.30;99.90;;;;;;5053980;28;20481;-80
2022/04/03 06:57:43;;;;;;;13.23;6.70;;;3.40;99.90;;;;;;5053758;28;20457;-80
2022/04/03 07:00:09;;;;;;;13.30;6.25;;;3.30;99.90;;;;;;5053640;28;20135;-80
2022/04/03 07:02:35;;;;;;;15.02;6.35;;;3.10;99.90;;;;;;5053472;28;20041;-76
2022/04/03 07:05:02;;;;;;;10.45;5.03;;;3.00;99.90;;;;;;5053245;28;20084;-80
2022/04/03 07:07:28;;;;;;;9.48;5.38;;;3.10;99.90;;;;;;5053522;28;20063;-80
2022/04/03 07:09:54;;;;;;;10.32;5.10;;;3.30;99.90;;;;;;5053559;28;20025;-79
2022/04/03 07:12:21;;;;;;;10.95;5.65;;;3.40;99.90;;;;;;5052285;28;20389;-80
2022/04/03 07:14:47;;;;;;;9.13;5.60;;;3.70;99.90;;;;;;5053496;28;20017;-80
2022/04/03 07:17:13;;;;;;;10.70;4.70;;;3.80;99.90;;;;;;5053216;28;20116;-78
2022/04/03 07:19:39;;;;;;;9.07;4.80;;;3.80;99.90;;;;;;5051598;28;20120;-80
2022/04/03 07:22:05;;;;;;;8.38;4.93;;;3.80;99.90;;;;;;5051972;28;20051;-80
2022/04/03 07:24:31;;;;;;;10.52;4.15;;;3.90;99.90;;;;;;5053293;28;20032;-79
2022/04/03 07:26:56;;;;;;;10.02;3.90;;;4.00;99.90;;;;;;5053152;28;20084;-79
2022/04/03 07:29:23;;;;;;;19.27;4.88;;;4.10;99.90;;;;;;5053013;28;20040;-80
2022/04/03 07:31:50;;;;;;;8.75;4.57;;;4.20;99.90;;;;;;5053400;28;20365;-80
2022/04/03 07:34:16;;;;;;;15.70;7.35;;;4.70;99.90;;;;;;5052788;28;20072;-78
2022/04/03 07:36:42;;;;;;;16.52;7.93;;;4.90;99.90;;;;;;5051640;28;20405;-79
2022/04/03 07:39:12;;;;;;;13.32;5.97;;;5.10;99.90;;;;;;5052947;28;20021;-80
2022/04/03 07:41:39;;;;;;;11.32;4.95;;;5.20;99.90;;;;;;5052961;28;20036;-76
2022/04/03 07:44:06;;;;;;;8.07;3.10;;;5.30;99.90;;;;;;5051850;28;20148;-79
2022/04/03 07:46:31;;;;;;;7.80;3.25;;;5.30;99.90;;;;;;5052745;28;20043;-80
2022/04/03 07:48:57;;;;;;;9.13;3.55;;;5.30;99.90;;;;;;5052667;28;20116;-80
2022/04/03 07:51:23;;;;;;;5.63;3.00;;;5.00;99.90;;;;;;5052698;28;20049;-80
2022/04/03 07:53:52;;;;;;;4.07;2.75;;;5.20;99.90;;;;;;5053309;28;20493;-79
2022/04/03 07:56:17;;;;;;;8.68;3.50;;;5.30;99.90;;;;;;5051655;28;20052;-79
2022/04/03 07:58:43;;;;;;;6.18;2.72;;;5.40;99.90;;;;;;5051686;28;20029;-78
2022/04/03 08:01:08;;;;;;;7.53;2.55;;;5.30;99.90;;;;;;5052275;28;20048;-78
2022/04/03 08:03:34;;;;;;;5.95;2.38;;;5.20;99.90;;;;;;5052278;28;20431;-80
2022/04/03 08:06:00;;;;;;;7.65;2.97;;;5.30;99.90;;;;;;5052812;28;20492;-80
2022/04/03 08:08:25;;;;;;;3.72;2.15;;;5.40;99.90;;;;;;5052620;28;20021;-80
2022/04/03 08:10:51;;;;;;;4.10;2.20;;;5.30;99.90;;;;;;5051447;28;20033;-80
2022/04/03 08:13:17;;;;;;;5.85;2.78;;;5.60;99.90;;;;;;5052572;28;20063;-80
2022/04/03 08:15:43;;;;;;;6.93;3.17;;;5.70;99.90;;;;;;5052545;28;20031;-79
2022/04/03 08:18:09;;;;;;;8.52;2.90;;;5.60;99.90;;;;;;5050926;28;20021;-80
2022/04/03 08:20:35;;;;;;;8.30;2.30;;;5.80;99.90;;;;;;5052572;28;20493;-81
2022/04/03 08:23:03;;;;;;;7.43;1.92;;;6.20;99.90;;;;;;5052549;28;20763;-80
2022/04/03 08:25:37;;;;;;;6.50;2.35;;;6.20;99.90;;;;;;5052339;28;20099;-81
2022/04/03 08:28:03;;;;;;;6.22;1.77;;;6.40;99.90;;;;;;5052371;28;20412;-80
2022/04/03 08:30:34;;;;;;;7.80;2.40;;;5.90;99.90;;;;;;5052244;28;20048;-80
2022/04/03 08:33:01;;;;;;;2.67;2.15;;;6.10;99.90;;;;;;5052419;28;20452;-80
2022/04/03 08:35:28;;;;;;;6.28;2.38;;;6.40;99.90;;;;;;5051164;28;20126;-80
2022/04/03 08:37:55;;;;;;;5.30;2.63;;;6.50;99.90;;;;;;5052314;28;20032;-80
2022/04/03 08:40:23;;;;;;;4.63;2.20;;;6.80;99.90;;;;;;5052168;28;20496;-80
2022/04/03 08:42:54;;;;;;;9.15;2.30;;;6.50;99.90;;;;;;5052156;28;20481;-79
2022/04/03 08:45:21;;;;;;;2.67;1.85;;;6.50;99.90;;;;;;5052153;28;20116;-78
2022/04/03 08:47:57;;;;;;;6.32;2.22;;;6.40;99.90;;;;;;5052109;28;20017;-80
2022/04/03 08:50:28;;;;;;;4.15;2.00;;;6.60;99.90;;;;;;5052136;28;20131;-80
2022/04/03 08:52:56;;;;;;;6.97;2.40;;;6.70;99.90;;;;;;5052116;28;20064;-80
2022/04/03 08:55:22;;;;;;;10.70;2.33;;;7.00;99.90;;;;;;5052206;28;20021;-79
2022/04/03 08:57:48;;;;;;;5.80;2.08;;;7.30;99.90;;;;;;5050836;28;20029;-81
2022/04/03 09:00:15;;;;;;;7.30;2.65;;;7.50;99.90;;;;;;5051774;28;20487;-81
2022/04/03 09:02:45;;;;;;;3.10;1.92;;;7.40;98.90;;;;;;5051838;28;20053;-80
2022/04/03 09:05:11;;;;;;;7.07;2.28;;;7.20;99.30;;;;;;5052075;28;20469;-80
2022/04/03 09:07:37;;;;;;;8.27;2.35;;;7.40;99.70;;;;;;5051781;28;20032;-80
2022/04/03 09:10:15;;;;;;;3.72;2.15;;;7.20;98.10;;;;;;5052043;28;20082;-80
2022/04/03 09:12:47;;;;;;;7.50;1.95;;;7.50;95.80;;;;;;5053574;28;20390;-81
2022/04/03 09:15:16;;;;;;;3.55;1.90;;;7.80;95.20;;;;;;5055456;28;20060;-79
2022/04/03 09:17:44;;;;;;;5.88;2.40;;;8.00;93.20;;;;;;5055791;28;20017;-81
2022/04/03 09:20:25;;;;;;;6.05;1.80;;;8.10;92.40;;;;;;5055380;28;20036;-81
2022/04/03 09:22:58;;;;;;;2.53;1.60;;;7.90;93.00;;;;;;5055410;28;20486;-75
2022/04/03 09:25:27;;;;;;;5.63;1.58;;;8.00;91.80;;;;;;5055323;28;20033;-80
2022/04/03 09:27:56;;;;;;;4.90;1.50;;;8.50;92.40;;;;;;5055397;28;20033;-78
2022/04/03 09:30:24;;;;;;;3.92;1.75;;;8.20;91.50;;;;;;5054978;28;20021;-80
2022/04/03 09:32:54;;;;;;;3.42;1.30;;;8.30;91.70;;;;;;5055165;28;20040;-78
2022/04/03 09:35:24;;;;;;;2.25;1.15;;;8.40;90.90;;;;;;5054976;28;20047;-75
2022/04/03 09:38:08;;;;;;;5.20;1.20;;;8.10;91.80;;;;;;5054796;28;20029;-79
2022/04/03 09:40:36;;;;;;;4.55;1.60;;;8.00;91.70;;;;;;5054965;28;20049;-81
2022/04/03 09:43:27;;;;;;;2.35;1.40;;;8.30;91.90;;;;;;5053538;28;20408;-78
2022/04/03 09:45:59;;;;;;;2.25;1.40;;;8.20;91.10;;;;;;5054966;28;20029;-75
2022/04/03 09:48:34;;;;;;;6.50;1.30;;;8.50;90.40;;;;;;5053500;28;20122;-80
2022/04/03 09:51:13;;;;;;;2.35;1.17;;;8.70;89.80;;;;;;5053546;28;20396;-73
2022/04/03 09:53:48;;;;;;;6.22;1.63;;;8.70;89.00;;;;;;5054787;28;20077;-79
2022/04/03 09:56:31;;;;;;;6.10;1.35;;;8.70;89.80;;;;;;5054919;28;20039;-79
2022/04/03 09:59:03;;;;;;;5.18;1.67;;;8.90;88.90;;;;;;5054334;28;20047;-80
2022/04/03 10:01:49;;;;;;;4.13;1.85;;;9.70;89.10;;;;;;5054468;28;20083;-82
2022/04/03 10:04:14;;;;;;;3.88;1.20;;;9.80;87.80;;;;;;5035012;28;20038;-79
2022/04/03 10:06:42;;;;;;;1.88;1.15;;;10.30;87.40;;;;;;5035095;28;20472;-80
2022/04/03 10:09:12;;;;;;;4.20;1.33;;;9.70;86.40;;;;;;5034250;28;20022;-79
2022/04/03 10:11:39;;;;;;;3.30;1.35;;;8.90;85.60;;;;;;5034660;28;20519;-83
2022/04/03 10:14:06;;;;;;;5.75;1.63;;;9.10;88.50;;;;;;5034009;28;20161;-79
2022/04/03 10:16:31;;;;;;;1.95;0.90;;;9.80;86.20;;;;;;5034538;28;20490;-80
2022/04/03 10:18:57;;;;;;;4.90;0.85;;;9.90;86.60;;;;;;5034389;28;20017;-79
2022/04/03 10:21:32;;;;;;;4.10;1.10;;;9.90;84.90;;;;;;5034307;28;20033;-80
2022/04/03 10:24:12;;;;;;;3.65;1.20;;;10.10;85.90;;;;;;5034021;28;20144;-78
2022/04/03 10:26:40;;;;;;;6.07;0.90;;;9.30;85.10;;;;;;5034072;28;20040;-80
2022/04/03 10:29:09;;;;;;;2.83;1.10;;;10.10;86.30;;;;;;5034170;28;20116;-81
2022/04/03 10:31:37;;;;;;;13.07;1.60;;;10.60;86.20;;;;;;5034110;28;20030;-80
2022/04/03 10:34:03;;;;;;;3.33;1.30;;;11.00;86.10;;;;;;5034140;28;20028;-80
2022/04/03 10:36:30;;;;;;;3.30;1.27;;;11.00;84.20;;;;;;5034118;28;20030;-81
2022/04/03 10:39:03;;;;;;;5.97;1.38;;;11.00;84.30;;;;;;5033894;28;20497;-79
2022/04/03 10:41:40;;;;;;;33.47;17.92;;;11.30;84.10;;;;;;5033624;28;20096;-81
2022/04/03 10:44:18;;;;;;;5.88;3.80;;;11.90;83.50;;;;;;5033861;28;20509;-79
2022/04/03 10:47:02;;;;;;;13.35;9.68;;;12.40;82.80;;;;;;5035293;28;20505;-81
2022/04/03 10:49:46;;;;;;;10.55;8.43;;;12.50;83.60;;;;;;5054039;28;20025;-81
2022/04/03 10:52:21;;;;;;;8.25;2.13;;;12.90;83.00;;;;;;5053866;28;20029;-81
2022/04/03 10:54:57;;;;;;;2.72;1.20;;;12.60;81.60;;;;;;5052555;28;20044;-74
2022/04/03 10:57:45;;;;;;;4.00;1.70;;;11.50;81.80;;;;;;5053375;28;20024;-81
2022/04/03 11:00:13;;;;;;;4.60;1.00;;;11.40;83.10;;;;;;5053316;28;20033;-77
2022/04/03 11:02:44;;;;;;;5.45;0.80;;;11.10;80.80;;;;;;5052428;28;20059;-78
2022/04/03 11:05:22;;;;;;;4.03;1.50;;;10.40;82.50;;;;;;5053579;28;20094;-83
2022/04/03 11:08:00;;;;;;;2.53;1.10;;;10.30;83.40;;;;;;5053599;28;20072;-83
2022/04/03 11:10:52;;;;;;;1.85;0.88;;;10.50;82.40;;;;;;5051849;28;20500;-81
2022/04/03 11:13:22;;;;;;;1.70;1.00;;;11.10;82.90;;;;;;5053845;28;20032;-83
2022/04/03 11:15:51;;;;;;;3.05;1.50;;;11.50;82.40;;;;;;5052121;28;20083;-83
2022/04/03 11:18:44;;;;;;;6.07;1.55;;;11.90;83.50;;;;;;5053580;28;20041;-83
2022/04/03 11:21:24;;;;;;;6.60;1.20;;;11.00;82.10;;;;;;5049520;28;20108;-83
2022/04/03 11:24:00;;;;;;;3.33;1.23;;;11.40;82.30;;;;;;5053528;28;20075;-82
2022/04/03 11:26:26;;;;;;;2.75;1.00;;;11.80;81.10;;;;;;5051509;28;20051;-83
2022/04/03 11:28:52;;;;;;;3.03;1.20;;;11.80;79.80;;;;;;5053323;28;20025;-83
2022/04/03 11:31:18;;;;;;;1.80;0.90;;;11.30;81.60;;;;;;5053033;28;20400;-83
2022/04/03 11:33:46;;;;;;;6.40;1.17;;;12.00;81.80;;;;;;5053195;28;20021;-82
2022/04/03 11:36:15;;;;;;;6.10;1.10;;;12.50;80.60;;;;;;5052456;28;20025;-82
2022/04/03 11:38:46;;;;;;;5.65;0.95;;;12.90;82.80;;;;;;5053204;28;20028;-82
2022/04/03 11:41:31;;;;;;;2.78;1.25;;;12.90;79.10;;;;;;5052288;28;20492;-82
2022/04/03 11:44:03;;;;;;;7.00;1.45;;;12.20;81.60;;;;;;5053021;28;20029;-82
2022/04/03 11:46:31;;;;;;;3.00;1.20;;;12.00;82.90;;;;;;5052817;28;20033;-82
2022/04/03 11:48:57;;;;;;;6.15;1.25;;;11.40;85.60;;;;;;5035282;28;20025;-82
2022/04/03 11:51:23;;;;;;;2.65;1.40;;;10.80;87.40;;;;;;5052737;28;20021;-81
2022/04/03 11:53:59;;;;;;;3.47;1.35;;;10.70;88.60;;;;;;5052617;28;20358;-82
2022/04/03 11:56:29;;;;;;;4.75;1.30;;;10.50;89.30;;;;;;5052757;28;20039;-82
2022/04/03 11:58:57;;;;;;;2.85;1.30;;;9.80;90.30;;;;;;5052846;28;20493;-81
2022/04/03 12:01:28;;;;;;;3.85;1.90;;;9.80;91.10;;;;;;5052603;28;20029;-81
2022/04/03 12:04:01;;;;;;;;;;;9.80;91.30;;;;;;5053187;28;20024;-83
2022/04/03 12:06:29;;;;;;;;;;;10.40;91.10;;;;;;5053086;28;19916;-81
2022/04/03 12:08:54;;;;;;;4.72;1.20;;;10.40;90.60;;;;;;5052313;28;19956;-81
2022/04/03 12:11:29;;;;;;;3.85;1.58;;;10.10;90.80;;;;;;5052725;28;20114;-83
2022/04/03 12:13:56;;;;;;;2.25;0.80;;;11.00;90.80;;;;;;5052779;28;20048;-82
2022/04/03 12:16:24;;;;;;;3.53;1.25;;;11.00;90.10;;;;;;5051287;28;20025;-82
2022/04/03 12:18:56;;;;;;;4.82;1.33;;;11.80;89.50;;;;;;5052585;28;20029;-82
2022/04/03 12:21:35;;;;;;;5.20;0.98;;;11.30;88.60;;;;;;5052334;28;20080;-82
2022/04/03 12:24:13;;;;;;;5.75;1.38;;;12.00;88.00;;;;;;5052207;28;20061;-77
2022/04/03 12:26:43;;;;;;;7.03;1.85;;;13.40;85.70;;;;;;5052692;28;20458;-80
2022/04/03 12:29:09;;;;;;;3.15;1.10;;;13.60;83.70;;;;;;5050961;28;20094;-82
2022/04/03 12:31:35;;;;;;;3.33;0.90;;;12.70;84.40;;;;;;5052691;28;20033;-81
2022/04/03 12:34:08;;;;;;;4.85;1.13;;;12.20;85.30;;;;;;5052476;28;20029;-82
2022/04/03 12:36:43;;;;;;;4.80;1.15;;;13.20;84.60;;;;;;5052755;28;20033;-81
2022/04/03 12:39:34;;;;;;;4.60;1.77;;;13.70;83.10;;;;;;5052061;28;20389;-82
2022/04/03 12:42:20;;;;;;;3.50;2.03;;;14.70;82.00;;;;;;5052517;28;20037;-82
2022/04/03 12:44:46;;;;;;;4.70;1.10;;;15.00;79.60;;;;;;5052505;28;20037;-83
2022/04/03 12:47:20;;;;;;;2.15;1.45;;;15.80;79.40;;;;;;5054948;28;20025;-82
2022/04/03 12:49:48;;;;;;;3.60;1.30;;;15.90;75.70;;;;;;5056259;28;20044;-83
2022/04/03 12:52:47;;;;;;;4.97;1.38;;;16.50;75.00;;;;;;5055090;28;20051;-82
2022/04/03 12:55:22;;;;;;;2.55;1.00;;;16.30;74.60;;;;;;5054837;28;20025;-72
2022/04/03 13:00:45;;;;;;;1.10;0.80;;;15.90;74.00;;;;;;5056312;28;20032;-82